createdAt,value
2019-04-22T00:02:09.556Z,4.90
2019-04-22T00:04:52.628Z,3.45
2019-04-22T00:07:28.624Z,5.40
2019-04-22T00:10:09.539Z,4.20
2019-04-22T00:12:44.017Z,5.28
2019-04-22T00:15:04.012Z,4.15
2019-04-22T00:17:46.583Z,6.60
2019-04-22T00:20:08.718Z,5.60
2019-04-22T00:22:38.649Z,6.87
2019-04-22T00:25:24.511Z,5.17
2019-04-22T00:27:48.988Z,6.97
2019-04-22T00:32:49.707Z,6.00
2019-04-22T00:35:23.699Z,4.92
2019-04-22T00:37:59.792Z,5.58
2019-04-22T00:40:29.673Z,5.35
2019-04-22T00:42:58.718Z,4.90
2019-04-22T00:45:37.424Z,4.42
2019-04-22T00:48:09.119Z,5.28
2019-04-22T00:50:37.449Z,5.45
2019-04-22T00:53:09.054Z,5.03
2019-04-22T00:55:40.436Z,4.62
2019-04-22T00:58:16.721Z,4.37
2019-04-22T01:00:45.525Z,5.62
2019-04-22T01:03:21.584Z,5.78
2019-04-22T01:05:51.128Z,5.60
2019-04-22T01:08:23.516Z,4.70
2019-04-22T01:10:52.882Z,4.65
2019-04-22T01:13:24.880Z,6.37
2019-04-22T01:16:01.212Z,5.80
2019-04-22T01:18:23.084Z,4.72
2019-04-22T01:23:28.247Z,5.58
2019-04-22T01:25:55.724Z,4.92
2019-04-22T01:28:23.428Z,6.33
2019-04-22T01:30:51.701Z,6.12
2019-04-22T01:33:23.150Z,6.35
2019-04-22T01:36:06.833Z,4.90
2019-04-22T01:38:43.298Z,4.50
2019-04-22T01:41:20.192Z,5.47
2019-04-22T01:43:53.747Z,5.28
2019-04-22T01:46:21.355Z,5.28
2019-04-22T01:48:47.733Z,4.15
2019-04-22T01:51:16.580Z,4.20
2019-04-22T01:53:50.432Z,5.37
2019-04-22T01:56:20.509Z,4.70
2019-04-22T01:58:44.188Z,5.62
2019-04-22T02:01:30.869Z,5.20
2019-04-22T02:06:30.657Z,6.15
2019-04-22T02:09:04.070Z,6.28
2019-04-22T02:11:36.623Z,5.00
2019-04-22T02:14:05.072Z,5.28
2019-04-22T02:16:34.239Z,5.45
2019-04-22T02:19:11.941Z,5.08
2019-04-22T02:21:35.736Z,4.60
2019-04-22T02:24:28.041Z,5.42
2019-04-22T02:26:48.339Z,5.05
2019-04-22T02:29:26.342Z,4.50
2019-04-22T02:34:35.099Z,4.67
2019-04-22T02:37:05.147Z,5.33
2019-04-22T02:39:38.330Z,5.50
2019-04-22T02:42:13.143Z,6.60
2019-04-22T02:44:39.194Z,6.25
2019-04-22T02:50:00.801Z,5.62
2019-04-22T02:52:17.750Z,6.28
2019-04-22T02:57:27.999Z,6.60
2019-04-22T02:59:54.618Z,5.97
2019-04-22T03:04:57.869Z,5.77
2019-04-22T03:07:14.788Z,5.47
2019-04-22T03:09:47.771Z,5.35
2019-04-22T03:14:48.604Z,5.20
2019-04-22T03:17:38.955Z,5.57
2019-04-22T03:20:01.969Z,6.10
2019-04-22T03:22:28.318Z,5.92
2019-04-22T03:27:29.721Z,4.90
2019-04-22T03:33:05.463Z,4.40
2019-04-22T03:40:37.270Z,4.97
2019-04-22T03:42:56.230Z,5.28
2019-04-22T03:45:26.389Z,5.30
2019-04-22T03:53:05.800Z,4.20
2019-04-22T03:55:37.416Z,5.27
2019-04-22T04:03:04.646Z,5.30
2019-04-22T04:08:22.031Z,5.67
2019-04-22T04:10:42.076Z,5.30
2019-04-22T04:15:34.662Z,5.23
2019-04-22T04:18:10.924Z,4.93
2019-04-22T04:21:09.102Z,5.83
2019-04-22T04:23:30.640Z,5.78
2019-04-22T04:25:49.661Z,4.67
2019-04-22T04:30:57.466Z,5.33
2019-04-22T04:33:23.386Z,5.93
2019-04-22T04:35:54.501Z,4.83
2019-04-22T04:38:30.283Z,3.93
2019-04-22T04:40:57.867Z,4.20
2019-04-22T04:43:38.947Z,4.77
2019-04-22T04:46:06.440Z,5.27
2019-04-22T04:48:43.924Z,4.83
2019-04-22T04:52:06.640Z,4.47
2019-04-22T04:53:31.667Z,4.73
2019-04-22T04:56:11.766Z,4.50
2019-04-22T04:58:56.488Z,4.40
2019-04-22T05:01:17.123Z,6.90
2019-04-22T05:03:48.893Z,4.73
2019-04-22T05:06:12.729Z,5.03
2019-04-22T05:09:03.821Z,5.00
2019-04-22T05:11:26.848Z,3.90
2019-04-22T05:18:53.030Z,4.33
2019-04-22T05:21:17.983Z,5.00
2019-04-22T05:26:22.113Z,5.10
2019-04-22T05:28:51.347Z,5.50
2019-04-22T05:31:22.697Z,5.03
2019-04-22T05:33:47.753Z,4.77
2019-04-22T05:36:30.012Z,4.17
2019-04-22T05:39:01.848Z,4.80
2019-04-22T05:41:26.935Z,4.23
2019-04-22T05:43:59.923Z,4.23
2019-04-22T05:46:32.715Z,4.70
2019-04-22T05:49:03.214Z,5.57
2019-04-22T05:51:31.439Z,5.20
2019-04-22T05:54:04.147Z,5.30
2019-04-22T05:59:04.353Z,4.92
2019-04-22T06:01:44.994Z,5.23
2019-04-22T06:04:09.758Z,6.27
2019-04-22T06:06:35.574Z,4.80
2019-04-22T06:11:48.258Z,5.37
2019-04-22T06:14:15.001Z,5.77
2019-04-22T06:16:50.389Z,6.20
2019-04-22T06:19:18.570Z,5.67
2019-04-22T06:21:49.755Z,6.65
2019-04-22T06:27:10.229Z,6.70
2019-04-22T06:29:25.247Z,6.70
2019-04-22T06:37:11.652Z,5.63
2019-04-22T06:39:34.186Z,5.78
2019-04-22T06:42:07.938Z,5.20
2019-04-22T06:44:36.562Z,4.97
2019-04-22T06:47:42.645Z,6.95
2019-04-22T06:49:41.943Z,5.58
2019-04-22T06:52:16.973Z,7.33
2019-04-22T06:54:45.420Z,5.70
2019-04-22T06:57:17.217Z,6.45
2019-04-22T06:59:43.937Z,7.62
2019-04-22T07:02:20.880Z,6.40
2019-04-22T07:04:56.479Z,5.47
2019-04-22T07:07:23.811Z,6.37
2019-04-22T07:10:26.451Z,6.53
2019-04-22T07:12:29.041Z,6.30
2019-04-22T07:15:02.829Z,6.62
2019-04-22T07:17:38.099Z,5.97
2019-04-22T07:20:06.577Z,6.10
2019-04-22T07:22:38.953Z,6.87
2019-04-22T07:25:06.244Z,5.55
2019-04-22T07:27:34.593Z,6.12
2019-04-22T07:30:15.412Z,5.53
2019-04-22T07:33:06.199Z,6.60
2019-04-22T07:35:19.417Z,7.58
2019-04-22T07:40:16.844Z,7.62
2019-04-22T07:43:04.325Z,7.08
2019-04-22T07:45:23.101Z,9.78
2019-04-22T07:47:57.884Z,6.15
2019-04-22T07:52:52.230Z,6.42
2019-04-22T07:55:25.861Z,7.50
2019-04-22T07:57:53.626Z,7.42
2019-04-22T08:00:29.109Z,8.93
2019-04-22T08:02:59.709Z,6.45
2019-04-22T08:05:33.370Z,9.08
2019-04-22T08:08:09.559Z,6.87
2019-04-22T08:13:03.870Z,5.87
2019-04-22T08:15:41.757Z,6.97
2019-04-22T08:18:09.915Z,6.33
2019-04-22T08:20:42.746Z,7.30
2019-04-22T08:23:16.373Z,6.25
2019-04-22T08:25:42.946Z,6.95
2019-04-22T08:28:17.861Z,6.92
2019-04-22T08:33:24.475Z,10.53
2019-04-22T08:38:35.377Z,7.30
2019-04-22T08:41:23.125Z,6.25
2019-04-22T08:43:56.490Z,7.50
2019-04-22T08:46:23.606Z,7.72
2019-04-22T08:56:43.688Z,8.48
2019-04-22T08:59:07.014Z,8.23
2019-04-22T09:01:28.310Z,6.15
2019-04-22T09:06:39.672Z,7.53
2019-04-22T09:14:11.311Z,6.78
2019-04-22T09:16:39.873Z,9.58
2019-04-22T09:21:45.621Z,7.33
2019-04-22T09:24:19.716Z,7.92
2019-04-22T09:26:47.676Z,7.72
2019-04-22T09:29:23.588Z,8.25
2019-04-22T09:31:57.079Z,8.80
2019-04-22T09:34:23.500Z,8.00
2019-04-22T09:36:58.929Z,10.05
2019-04-22T09:39:23.059Z,9.65
2019-04-22T09:41:51.374Z,10.40
2019-04-22T09:44:34.509Z,9.53
2019-04-22T09:47:19.216Z,10.40
2019-04-22T09:52:16.118Z,11.83
2019-04-22T09:57:23.317Z,10.98
2019-04-22T09:59:57.946Z,11.95
2019-04-22T10:05:05.587Z,11.28
2019-04-22T10:10:09.449Z,13.03
2019-04-22T10:12:36.725Z,13.95
2019-04-22T10:15:23.343Z,13.30
2019-04-22T10:17:38.772Z,11.97
2019-04-22T10:20:10.610Z,15.63
2019-04-22T10:25:23.184Z,16.75
2019-04-22T10:27:51.356Z,12.10
2019-04-22T10:30:32.148Z,19.52
2019-04-22T10:32:47.617Z,15.18
2019-04-22T10:35:15.594Z,14.65
2019-04-22T10:37:42.782Z,12.70
2019-04-22T10:40:19.581Z,14.58
2019-04-22T10:42:51.430Z,14.85
2019-04-22T10:45:21.972Z,16.10
2019-04-22T10:47:52.351Z,14.00
2019-04-22T10:50:25.443Z,16.23
2019-04-22T10:52:55.341Z,15.40
2019-04-22T10:55:25.488Z,12.35
2019-04-22T10:57:56.746Z,14.55
2019-04-22T11:00:27.358Z,13.38
2019-04-22T11:02:57.972Z,16.50
2019-04-22T11:05:28.281Z,12.05
2019-04-22T11:08:03.159Z,13.25
2019-04-22T11:10:42.781Z,13.68
2019-04-22T11:13:02.974Z,13.48
2019-04-22T11:15:34.848Z,15.20
2019-04-22T11:18:05.529Z,14.73
2019-04-22T11:20:37.887Z,17.48
2019-04-22T11:23:08.829Z,13.62
2019-04-22T11:25:39.557Z,10.82
2019-04-22T11:28:10.309Z,15.13
2019-04-22T11:30:42.747Z,12.10
2019-04-22T11:33:14.149Z,16.37
2019-04-22T11:35:45.799Z,14.83
2019-04-22T11:38:17.063Z,14.03
2019-04-22T11:40:53.508Z,14.15
2019-04-22T11:43:20.054Z,13.85
2019-04-22T11:45:53.566Z,14.83
2019-04-22T11:48:23.608Z,15.70
2019-04-22T11:50:53.785Z,13.68
2019-04-22T11:53:24.868Z,14.65
2019-04-22T11:55:55.080Z,12.07
2019-04-22T11:58:26.480Z,12.63
2019-04-22T12:00:57.067Z,15.15
2019-04-22T12:03:28.586Z,15.93
2019-04-22T12:05:59.825Z,11.68
2019-04-22T12:08:31.082Z,13.18
2019-04-22T12:11:04.368Z,12.78
2019-04-22T12:13:33.875Z,15.43
2019-04-22T12:16:05.247Z,16.15
2019-04-22T12:18:35.449Z,16.32
2019-04-22T12:21:05.497Z,12.23
2019-04-22T12:23:36.967Z,13.48
2019-04-22T12:26:11.676Z,10.63
2019-04-22T12:28:39.562Z,9.60
2019-04-22T12:31:09.526Z,10.13
2019-04-22T12:33:39.342Z,12.98
2019-04-22T12:36:10.938Z,16.17
2019-04-22T12:38:41.808Z,11.35
2019-04-22T12:41:12.591Z,9.83
2019-04-22T12:43:43.304Z,8.60
2019-04-22T12:46:14.475Z,7.97
2019-04-22T12:48:45.180Z,9.35
2019-04-22T12:51:16.658Z,10.32
2019-04-22T12:53:46.512Z,8.98
2019-04-22T12:56:17.431Z,9.60
2019-04-22T12:58:47.694Z,9.58
2019-04-22T13:01:18.994Z,8.83
2019-04-22T13:04:07.401Z,10.23
2019-04-22T13:06:33.143Z,8.85
2019-04-22T13:09:04.228Z,8.78
2019-04-22T13:11:36.561Z,12.20
2019-04-22T13:14:08.950Z,9.13
2019-04-22T13:16:40.852Z,8.75
2019-04-22T13:19:13.279Z,8.63
2019-04-22T13:21:42.799Z,8.85
2019-04-22T13:24:13.335Z,8.65
2019-04-22T13:26:43.304Z,9.23
2019-04-22T13:29:13.094Z,9.00
2019-04-22T13:31:42.942Z,8.70
2019-04-22T13:34:23.957Z,9.38
2019-04-22T13:36:46.621Z,7.35
2019-04-22T13:39:16.870Z,7.95
2019-04-22T13:41:52.203Z,9.58
2019-04-22T13:44:37.801Z,8.50
2019-04-22T13:47:22.235Z,6.80
2019-04-22T13:50:23.725Z,8.93
2019-04-22T13:52:46.337Z,8.18
2019-04-22T13:55:08.181Z,8.00
2019-04-22T13:57:32.828Z,7.72
2019-04-22T13:59:53.743Z,8.30
2019-04-22T14:02:22.612Z,6.35
2019-04-22T14:04:54.893Z,6.30
2019-04-22T14:07:25.173Z,6.03
2019-04-22T14:09:56.097Z,5.85
2019-04-22T14:12:26.642Z,5.35
2019-04-22T14:14:58.387Z,5.33
2019-04-22T14:17:29.351Z,6.03
2019-04-22T14:20:00.450Z,5.50
2019-04-22T14:22:32.514Z,3.98
2019-04-22T14:25:02.973Z,4.58
2019-04-22T14:27:47.321Z,4.20
2019-04-22T14:30:06.462Z,3.45
2019-04-22T14:32:37.855Z,3.60
2019-04-22T14:35:11.200Z,3.80
2019-04-22T14:37:42.469Z,3.35
2019-04-22T14:40:18.777Z,4.10
2019-04-22T14:43:05.928Z,4.70
2019-04-22T14:45:52.184Z,3.55
2019-04-22T14:48:18.825Z,3.25
2019-04-22T14:50:46.706Z,3.47
2019-04-22T14:53:13.357Z,3.80
2019-04-22T14:55:30.652Z,3.30
2019-04-22T14:57:59.142Z,2.90
2019-04-22T15:00:29.608Z,3.05
2019-04-22T15:02:59.819Z,2.95
2019-04-22T15:05:30.305Z,4.50
2019-04-22T15:08:01.290Z,3.50
2019-04-22T15:10:31.826Z,2.75
2019-04-22T15:13:02.972Z,3.20
2019-04-22T15:15:56.895Z,2.80
2019-04-22T15:18:31.502Z,2.92
2019-04-22T15:21:04.795Z,3.37
2019-04-22T15:23:35.199Z,3.02
2019-04-22T15:26:06.403Z,3.12
2019-04-22T15:28:37.464Z,2.92
2019-04-22T15:31:09.007Z,4.28
2019-04-22T15:33:41.517Z,4.87
2019-04-22T15:36:12.043Z,5.45
2019-04-22T15:38:42.224Z,6.47
2019-04-22T15:41:12.552Z,6.83
2019-04-22T15:43:43.696Z,6.42
2019-04-22T15:46:14.098Z,5.65
2019-04-22T15:48:46.294Z,5.00
2019-04-22T15:51:16.554Z,7.08
2019-04-22T15:53:47.567Z,5.58
2019-04-22T15:56:18.778Z,7.67
2019-04-22T15:58:48.768Z,6.03
2019-04-22T16:01:25.931Z,7.03
2019-04-22T16:03:50.341Z,5.72
2019-04-22T16:06:21.927Z,5.60
2019-04-22T16:08:52.184Z,6.03
2019-04-22T16:11:24.129Z,5.25
2019-04-22T16:13:54.759Z,5.67
2019-04-22T16:16:24.807Z,5.58
2019-04-22T16:18:56.163Z,6.17
2019-04-22T16:21:32.723Z,5.22
2019-04-22T16:24:13.961Z,4.53
2019-04-22T16:26:46.609Z,6.15
2019-04-22T16:29:16.838Z,6.55
2019-04-22T16:31:47.557Z,5.58
2019-04-22T16:34:17.454Z,7.20
2019-04-22T16:36:47.400Z,7.55
2019-04-22T16:39:18.421Z,6.15
2019-04-22T16:41:48.646Z,8.18
2019-04-22T16:44:32.268Z,5.75
2019-04-22T16:47:03.694Z,5.33
2019-04-22T16:49:33.931Z,6.22
2019-04-22T16:52:03.968Z,6.25
2019-04-22T16:54:34.947Z,4.95
2019-04-22T16:57:05.975Z,6.40
2019-04-22T16:59:37.034Z,7.10
2019-04-22T17:02:15.120Z,6.12
2019-04-22T17:04:50.843Z,6.95
2019-04-22T17:07:22.251Z,5.62
2019-04-22T17:09:53.363Z,5.97
2019-04-22T17:12:23.879Z,5.83
2019-04-22T17:15:01.763Z,6.55
2019-04-22T17:17:26.617Z,6.40
2019-04-22T17:19:57.656Z,6.17
2019-04-22T17:22:27.601Z,4.60
2019-04-22T17:24:58.255Z,5.30
2019-04-22T17:27:28.782Z,5.10
2019-04-22T17:29:59.670Z,4.58
2019-04-22T17:32:29.682Z,4.78
2019-04-22T17:34:59.496Z,4.85
2019-04-22T17:37:32.259Z,5.15
2019-04-22T17:40:18.280Z,5.90
2019-04-22T17:42:49.481Z,5.28
2019-04-22T17:45:45.100Z,4.55
2019-04-22T17:48:27.666Z,6.40
2019-04-22T17:51:16.133Z,5.08
2019-04-22T17:53:46.921Z,5.08
